Cytokinetics Inc (CYTK)

Market is closed
Insider Trading: Sales
Insider Price Amount Total Value Remaining Holdings Date Form 4
$77.37 3,500 $270,795.00 153,902 2026-05-05 Filing
$75.00 4,032 $302,400.00 32,637 2026-05-05 Filing
$76.87 23,906 $1,837,654.22 63,221 2026-05-05 Filing
$75.97 20,000 $1,519,400.00 75,237 2026-05-05 Filing
$77.25 11,333 $875,474.25 58,555 2026-05-05 Filing
$65.00 15,857 $1,030,705.00 58,555 2026-05-01 Filing
$63.26 15,000 $948,900.00 58,555 2026-04-30 Filing
$59.62 7,500 $447,150.00 407,830 2026-04-29 Filing
$65.69 3,500 $229,915.00 153,902 2026-04-21 Filing
$66.02 7,449 $491,782.98 58,555 2026-04-15 Filing
$65.38 7,500 $490,350.00 415,330 2026-04-15 Filing
$64.75 1,000 $64,750.00 153,902 2026-04-07 Filing
$65.21 3,500 $228,235.00 153,902 2026-04-07 Filing
$66.63 7,500 $499,725.00 422,830 2026-04-01 Filing
$65.00 3,639 $236,535.00 66,004 2026-03-31 Filing
$62.15 4,935 $306,710.25 87,127 2026-03-17 Filing
$62.15 2,916 $181,229.40 71,573 2026-03-17 Filing
$62.15 5,626 $349,655.90 74,489 2026-03-17 Filing
$62.15 4,397 $273,273.55 153,902 2026-03-17 Filing
$62.15 7,636 $474,577.40 158,299 2026-03-17 Filing